createdAt,value
2018-06-23T00:00:59.905Z,10.83
2018-06-23T00:03:28.889Z,10.87
2018-06-23T00:05:57.843Z,10.90
2018-06-23T00:08:27.002Z,10.96
2018-06-23T00:10:55.988Z,11.00
2018-06-23T00:13:24.959Z,11.04
2018-06-23T00:15:53.942Z,11.07
2018-06-23T00:18:22.910Z,11.15
2018-06-23T00:20:51.880Z,11.19
2018-06-23T00:23:20.927Z,11.20
2018-06-23T00:25:55.218Z,11.22
2018-06-23T00:28:24.182Z,11.19
2018-06-23T00:30:53.164Z,11.21
2018-06-23T00:33:22.417Z,11.25
2018-06-23T00:35:51.397Z,11.27
2018-06-23T00:38:20.561Z,11.26
2018-06-23T00:40:49.580Z,11.24
2018-06-23T00:43:18.576Z,11.27
2018-06-23T00:45:47.581Z,11.33
2018-06-23T00:48:16.546Z,11.33
2018-06-23T00:50:45.547Z,11.32
2018-06-23T00:53:15.011Z,11.40
2018-06-23T00:55:43.970Z,11.40
2018-06-23T00:58:13.048Z,11.36
2018-06-23T01:00:42.048Z,11.47
2018-06-23T01:03:11.046Z,11.47
2018-06-23T01:05:40.284Z,11.45
2018-06-23T01:08:09.326Z,11.45
2018-06-23T01:10:38.332Z,11.49
2018-06-23T01:13:07.439Z,11.47
2018-06-23T01:15:36.666Z,11.50
2018-06-23T01:18:05.645Z,11.54
2018-06-23T01:20:34.628Z,11.54
2018-06-23T01:23:03.609Z,11.57
2018-06-23T01:25:32.585Z,11.54
2018-06-23T01:28:01.571Z,11.52
2018-06-23T01:30:30.611Z,11.52
2018-06-23T01:32:59.724Z,11.51
2018-06-23T01:35:28.720Z,11.59
2018-06-23T01:37:57.706Z,11.49
2018-06-23T01:40:26.821Z,11.47
2018-06-23T01:42:55.846Z,11.47
2018-06-23T01:45:24.876Z,11.49
2018-06-23T01:47:53.899Z,11.50
2018-06-23T01:50:22.847Z,11.56
2018-06-23T01:52:51.825Z,11.53
2018-06-23T01:55:20.891Z,11.55
2018-06-23T01:57:49.916Z,11.51
2018-06-23T02:00:18.933Z,11.53
2018-06-23T02:02:47.973Z,11.53
2018-06-23T02:05:16.960Z,11.51
2018-06-23T02:07:45.981Z,11.54
2018-06-23T02:10:14.976Z,11.58
2018-06-23T02:12:44.029Z,11.61
2018-06-23T02:15:12.991Z,11.62
2018-06-23T02:17:47.454Z,11.62
2018-06-23T02:20:21.720Z,11.60
2018-06-23T02:22:56.039Z,11.58
2018-06-23T02:25:30.353Z,11.57
2018-06-23T02:28:04.756Z,11.57
2018-06-23T02:30:39.217Z,11.56
2018-06-23T02:33:14.742Z,11.58
2018-06-23T02:35:43.987Z,11.64
2018-06-23T02:38:13.069Z,11.66
2018-06-23T02:40:42.107Z,11.66
2018-06-23T02:43:11.101Z,11.62
2018-06-23T02:45:40.071Z,11.57
2018-06-23T02:48:09.091Z,11.53
2018-06-23T02:50:38.081Z,11.52
2018-06-23T02:53:07.057Z,11.56
2018-06-23T02:55:36.026Z,11.59
2018-06-23T02:58:05.181Z,11.60
2018-06-23T03:00:34.156Z,11.63
2018-06-23T03:03:03.139Z,11.59
2018-06-23T03:05:32.141Z,11.59
2018-06-23T03:08:01.122Z,11.61
2018-06-23T03:10:30.150Z,11.65
2018-06-23T03:12:59.135Z,11.64
2018-06-23T03:15:31.558Z,11.69
2018-06-23T03:18:00.719Z,11.61
2018-06-23T03:20:31.194Z,11.63
2018-06-23T03:23:00.357Z,11.55
2018-06-23T03:25:29.700Z,11.58
2018-06-23T03:27:58.682Z,11.61
2018-06-23T03:30:27.695Z,11.51
2018-06-23T03:32:57.872Z,11.55
2018-06-23T03:35:26.878Z,11.49
2018-06-23T03:37:55.999Z,11.54
2018-06-23T03:40:25.112Z,11.54
2018-06-23T03:42:54.107Z,11.56
2018-06-23T03:45:23.239Z,11.62
2018-06-23T03:47:52.342Z,11.65
2018-06-23T03:50:21.328Z,11.75
2018-06-23T03:52:50.351Z,11.81
2018-06-23T03:55:20.878Z,11.80
2018-06-23T03:57:49.859Z,11.80
2018-06-23T04:00:18.827Z,11.80
2018-06-23T04:02:47.820Z,11.83
2018-06-23T04:05:16.895Z,11.79
2018-06-23T04:07:45.864Z,11.76
2018-06-23T04:10:14.917Z,11.78
2018-06-23T04:12:43.939Z,11.85
2018-06-23T04:15:12.957Z,11.92
2018-06-23T04:17:43.120Z,12.04
2018-06-23T04:20:12.196Z,11.99
2018-06-23T04:22:41.213Z,11.97
2018-06-23T04:25:10.243Z,11.98
2018-06-23T04:27:39.217Z,12.00
2018-06-23T04:30:08.226Z,12.11
2018-06-23T04:32:37.193Z,12.14
2018-06-23T04:35:07.362Z,12.18
2018-06-23T04:37:36.401Z,12.13
2018-06-23T04:40:05.438Z,12.14
2018-06-23T04:42:34.408Z,12.16
2018-06-23T04:45:03.419Z,12.20
2018-06-23T04:47:32.421Z,12.21
2018-06-23T04:50:01.404Z,12.32
2018-06-23T04:52:30.408Z,12.27
2018-06-23T04:55:01.143Z,12.14
2018-06-23T04:57:30.107Z,12.17
2018-06-23T04:59:59.336Z,12.12
2018-06-23T05:02:28.735Z,12.13
2018-06-23T05:04:57.893Z,12.08
2018-06-23T05:07:26.856Z,12.03
2018-06-23T05:09:55.845Z,12.09
2018-06-23T05:12:24.829Z,12.19
2018-06-23T05:14:53.800Z,12.27
2018-06-23T05:17:22.881Z,12.65
2018-06-23T05:19:52.184Z,12.79
2018-06-23T05:22:21.442Z,12.90
2018-06-23T05:24:51.959Z,12.92
2018-06-23T05:27:20.980Z,12.83
2018-06-23T05:29:50.424Z,12.79
2018-06-23T05:32:21.332Z,12.77
2018-06-23T05:34:50.391Z,12.78
2018-06-23T05:37:19.354Z,12.74
2018-06-23T05:39:48.331Z,12.66
2018-06-23T05:42:17.321Z,12.59
2018-06-23T05:44:46.364Z,12.63
2018-06-23T05:47:15.386Z,12.84
2018-06-23T05:49:44.508Z,13.10
2018-06-23T05:52:13.890Z,13.26
2018-06-23T05:54:43.083Z,13.23
2018-06-23T05:57:12.283Z,13.25
2018-06-23T05:59:41.445Z,13.34
2018-06-23T06:02:12.619Z,13.51
2018-06-23T06:04:42.126Z,13.63
2018-06-23T06:07:12.033Z,13.88
2018-06-23T06:09:41.055Z,14.43
2018-06-23T06:12:10.076Z,15.05
2018-06-23T06:14:39.050Z,15.91
2018-06-23T06:17:28.944Z,16.30
2018-06-23T06:20:00.112Z,15.77
2018-06-23T06:22:33.009Z,16.15
2018-06-23T06:25:02.114Z,16.79
2018-06-23T06:27:31.656Z,17.53
2018-06-23T06:30:00.709Z,18.06
2018-06-23T06:32:30.064Z,19.00
2018-06-23T06:34:59.222Z,20.14
2018-06-23T06:37:28.167Z,19.73
2018-06-23T06:39:57.428Z,20.08
2018-06-23T06:42:26.453Z,19.50
2018-06-23T06:44:55.724Z,19.29
2018-06-23T06:47:24.710Z,19.88
2018-06-23T06:49:53.725Z,19.86
2018-06-23T06:52:22.729Z,20.81
2018-06-23T06:54:51.901Z,20.61
2018-06-23T06:57:21.378Z,20.77
2018-06-23T06:59:50.448Z,20.39
2018-06-23T07:02:19.453Z,20.48
2018-06-23T07:04:48.489Z,20.65
2018-06-23T07:07:17.485Z,20.44
2018-06-23T07:09:46.574Z,21.00
2018-06-23T07:12:15.581Z,21.28
2018-06-23T07:14:44.665Z,21.20
2018-06-23T07:17:13.683Z,20.71
2018-06-23T07:19:42.952Z,20.83
2018-06-23T07:22:12.591Z,20.70
2018-06-23T07:24:41.686Z,19.66
2018-06-23T07:27:11.647Z,20.14
2018-06-23T07:29:40.660Z,20.58
2018-06-23T07:32:09.744Z,19.67
2018-06-23T07:34:38.779Z,18.77
2018-06-23T07:37:07.742Z,17.96
2018-06-23T07:39:36.745Z,17.49
2018-06-23T07:42:06.486Z,17.29
2018-06-23T07:44:35.648Z,16.69
2018-06-23T07:47:04.641Z,16.84
2018-06-23T07:49:33.605Z,16.75
2018-06-23T07:52:02.622Z,16.07
2018-06-23T07:54:31.634Z,15.70
2018-06-23T07:57:00.663Z,15.41
2018-06-23T07:59:29.624Z,15.28
2018-06-23T08:01:58.907Z,14.93
2018-06-23T08:04:28.922Z,14.72
2018-06-23T08:06:58.000Z,14.63
2018-06-23T08:09:27.091Z,14.54
2018-06-23T08:11:57.232Z,14.15
2018-06-23T08:14:26.264Z,14.09
2018-06-23T08:16:55.712Z,14.05
2018-06-23T08:19:24.670Z,14.15
2018-06-23T08:21:54.249Z,14.07
2018-06-23T08:24:23.306Z,14.07
2018-06-23T08:26:52.290Z,14.02
2018-06-23T08:29:21.285Z,14.09
2018-06-23T08:31:50.313Z,14.04
2018-06-23T08:34:19.335Z,14.16
2018-06-23T08:36:48.304Z,14.12
2018-06-23T08:39:17.608Z,13.95
2018-06-23T08:41:46.623Z,13.88
2018-06-23T08:44:15.697Z,13.63
2018-06-23T08:46:46.278Z,13.58
2018-06-23T08:49:15.293Z,13.58
2018-06-23T08:51:46.337Z,13.55
2018-06-23T08:54:15.339Z,13.37
2018-06-23T08:56:44.323Z,13.30
2018-06-23T08:59:13.839Z,13.17
2018-06-23T09:01:42.938Z,13.01
2018-06-23T09:04:11.948Z,12.92
2018-06-23T09:06:41.446Z,13.10
2018-06-23T09:09:11.130Z,13.30
2018-06-23T09:11:40.558Z,13.05
2018-06-23T09:14:09.775Z,12.99
2018-06-23T09:16:38.827Z,12.93
2018-06-23T09:19:07.845Z,12.74
2018-06-23T09:21:36.931Z,12.66
2018-06-23T09:24:05.916Z,12.59
2018-06-23T09:26:36.286Z,12.59
2018-06-23T09:29:05.260Z,12.75
2018-06-23T09:31:34.731Z,12.98
2018-06-23T09:34:03.942Z,13.09
2018-06-23T09:36:33.022Z,13.19
2018-06-23T09:39:02.075Z,13.30
2018-06-23T09:41:31.135Z,13.51
2018-06-23T09:44:00.135Z,13.26
2018-06-23T09:46:29.121Z,13.18
2018-06-23T09:48:58.075Z,12.97
2018-06-23T09:51:28.667Z,12.78
2018-06-23T09:53:57.633Z,12.68
2018-06-23T09:56:26.664Z,12.71
2018-06-23T09:58:55.618Z,12.53
2018-06-23T10:01:24.592Z,12.49
2018-06-23T10:03:53.579Z,12.38
2018-06-23T10:06:22.663Z,12.22
2018-06-23T10:08:51.666Z,12.32
2018-06-23T10:11:20.714Z,12.42
2018-06-23T10:13:49.845Z,12.47
2018-06-23T10:16:18.882Z,12.58
2018-06-23T10:18:47.897Z,12.48
2018-06-23T10:21:16.864Z,12.53
2018-06-23T10:23:45.846Z,12.55
2018-06-23T10:26:14.852Z,12.49
2018-06-23T10:28:43.904Z,12.27
2018-06-23T10:31:12.944Z,12.17
2018-06-23T10:33:42.018Z,12.12
2018-06-23T10:36:11.022Z,12.16
2018-06-23T10:38:40.096Z,12.27
2018-06-23T10:41:09.025Z,12.39
2018-06-23T10:43:38.095Z,12.48
2018-06-23T10:46:07.114Z,12.55
2018-06-23T10:48:36.114Z,12.47
2018-06-23T10:51:06.095Z,12.59
2018-06-23T10:53:35.230Z,12.57
2018-06-23T10:56:04.432Z,12.64
2018-06-23T10:58:33.413Z,12.54
2018-06-23T11:01:02.444Z,12.59
2018-06-23T11:03:31.473Z,12.69
2018-06-23T11:06:00.591Z,12.73
2018-06-23T11:08:29.574Z,12.73
2018-06-23T11:10:58.580Z,12.82
2018-06-23T11:13:27.732Z,12.81
2018-06-23T11:15:56.794Z,12.77
2018-06-23T11:18:25.747Z,12.78
2018-06-23T11:20:54.782Z,12.83
2018-06-23T11:23:23.752Z,12.81
2018-06-23T11:25:52.731Z,13.05
2018-06-23T11:28:21.692Z,13.08
2018-06-23T11:30:50.732Z,13.13
2018-06-23T11:33:19.688Z,13.22
2018-06-23T11:35:48.691Z,13.28
2018-06-23T11:38:17.745Z,13.31
2018-06-23T11:40:46.770Z,13.34
2018-06-23T11:43:15.735Z,13.41
2018-06-23T11:45:44.708Z,13.36
2018-06-23T11:48:13.678Z,13.48
2018-06-23T11:50:42.649Z,13.61
2018-06-23T11:53:11.679Z,13.64
2018-06-23T11:55:40.620Z,13.58
2018-06-23T11:58:09.583Z,13.58
2018-06-23T12:00:38.549Z,13.37
2018-06-23T12:03:07.596Z,13.43
2018-06-23T12:05:36.531Z,13.45
2018-06-23T12:08:05.637Z,13.55
2018-06-23T12:10:34.741Z,13.46
2018-06-23T12:13:03.839Z,13.53
2018-06-23T12:15:32.807Z,13.63
2018-06-23T12:18:01.859Z,13.89
2018-06-23T12:20:30.896Z,14.05
2018-06-23T12:22:59.891Z,14.06
2018-06-23T12:25:29.155Z,14.44
2018-06-23T12:27:58.342Z,14.99
2018-06-23T12:30:27.334Z,15.09
2018-06-23T12:32:56.332Z,15.47
2018-06-23T12:35:25.339Z,15.88
2018-06-23T12:37:54.325Z,15.80
2018-06-23T12:40:23.299Z,15.84
2018-06-23T12:42:52.372Z,15.82
2018-06-23T12:45:21.367Z,16.05
2018-06-23T12:47:50.377Z,15.67
2018-06-23T12:50:19.387Z,15.61
2018-06-23T12:52:48.516Z,15.56
2018-06-23T12:55:20.121Z,15.54
2018-06-23T12:57:49.200Z,15.75
2018-06-23T13:00:18.168Z,15.81
2018-06-23T13:02:47.162Z,15.78
2018-06-23T13:05:16.204Z,15.78
2018-06-23T13:07:45.218Z,15.97
2018-06-23T13:10:15.397Z,15.87
2018-06-23T13:12:44.502Z,15.88
2018-06-23T13:15:13.536Z,16.15
2018-06-23T13:17:42.581Z,16.53
2018-06-23T13:20:11.633Z,16.87
2018-06-23T13:22:40.650Z,17.21
2018-06-23T13:25:09.677Z,17.23
2018-06-23T13:27:38.658Z,17.12
2018-06-23T13:30:07.634Z,16.94
2018-06-23T13:32:36.644Z,17.26
2018-06-23T13:35:05.644Z,17.86
2018-06-23T13:37:34.669Z,17.94
2018-06-23T13:40:03.653Z,18.08
2018-06-23T13:42:33.565Z,17.72
2018-06-23T13:45:02.769Z,17.37
2018-06-23T13:47:32.025Z,17.55
2018-06-23T13:50:01.016Z,17.44
2018-06-23T13:52:30.324Z,17.29
2018-06-23T13:54:59.385Z,17.05
2018-06-23T13:57:28.359Z,17.04
2018-06-23T13:59:57.543Z,17.00
2018-06-23T14:02:26.618Z,16.49
2018-06-23T14:04:55.621Z,16.20
2018-06-23T14:07:24.814Z,15.99
2018-06-23T14:09:53.838Z,15.53
2018-06-23T14:12:22.803Z,15.34
2018-06-23T14:14:51.861Z,15.11
2018-06-23T14:17:20.837Z,15.07
2018-06-23T14:19:49.946Z,15.15
2018-06-23T14:22:18.956Z,15.21
2018-06-23T14:24:47.960Z,15.21
2018-06-23T14:27:17.005Z,15.32
2018-06-23T14:29:46.163Z,15.23
2018-06-23T14:32:15.451Z,14.90
2018-06-23T14:34:44.313Z,14.72
2018-06-23T14:37:13.367Z,14.59
2018-06-23T14:39:42.483Z,14.36
2018-06-23T14:42:11.470Z,14.03
2018-06-23T14:44:40.471Z,13.80
2018-06-23T14:47:09.470Z,13.66
2018-06-23T14:49:38.432Z,13.63
2018-06-23T14:52:07.490Z,13.61
2018-06-23T14:54:36.466Z,13.60
2018-06-23T14:57:05.605Z,13.55
2018-06-23T14:59:34.780Z,13.41
2018-06-23T15:02:03.724Z,13.25
2018-06-23T15:04:32.804Z,13.11
2018-06-23T15:07:01.828Z,12.89
2018-06-23T15:09:42.106Z,12.90
2018-06-23T15:12:22.732Z,13.03
2018-06-23T15:14:52.450Z,12.99
2018-06-23T15:17:21.514Z,13.00
2018-06-23T15:19:50.483Z,12.99
2018-06-23T15:22:19.510Z,12.97
2018-06-23T15:24:48.476Z,13.03
2018-06-23T15:27:17.488Z,13.04
2018-06-23T15:29:46.445Z,13.06
2018-06-23T15:32:15.439Z,13.10
2018-06-23T15:34:44.442Z,13.11
2018-06-23T15:37:13.402Z,13.14
2018-06-23T15:39:42.429Z,13.22
2018-06-23T15:42:11.479Z,13.26
2018-06-23T15:44:40.542Z,13.17
2018-06-23T15:47:09.600Z,13.09
2018-06-23T15:49:38.570Z,12.98
2018-06-23T15:52:07.574Z,12.91
2018-06-23T15:54:36.552Z,12.94
2018-06-23T15:57:05.725Z,12.87
2018-06-23T15:59:34.791Z,12.76
2018-06-23T16:02:03.882Z,12.73
2018-06-23T16:04:33.041Z,12.74
2018-06-23T16:07:02.511Z,12.78
2018-06-23T16:09:31.556Z,12.81
2018-06-23T16:12:00.535Z,12.79
2018-06-23T16:14:29.554Z,12.76
2018-06-23T16:16:58.557Z,12.76
2018-06-23T16:19:27.580Z,12.76
2018-06-23T16:21:56.548Z,12.78
2018-06-23T16:24:25.524Z,12.81
2018-06-23T16:26:54.487Z,12.82
2018-06-23T16:29:23.543Z,12.76
2018-06-23T16:31:52.812Z,12.79
2018-06-23T16:34:21.810Z,12.76
2018-06-23T16:36:50.849Z,12.69
2018-06-23T16:39:19.932Z,12.58
2018-06-23T16:41:48.933Z,12.50
2018-06-23T16:44:17.921Z,12.44
2018-06-23T16:46:47.128Z,12.40
2018-06-23T16:49:16.120Z,12.41
2018-06-23T16:51:45.113Z,12.44
2018-06-23T16:54:14.131Z,12.46
2018-06-23T16:56:43.243Z,12.46
2018-06-23T16:59:12.223Z,12.42
2018-06-23T17:01:41.236Z,12.39
2018-06-23T17:04:10.279Z,12.47
2018-06-23T17:06:39.351Z,12.46
2018-06-23T17:09:09.697Z,12.54
2018-06-23T17:11:39.096Z,12.50
2018-06-23T17:14:08.385Z,12.58
2018-06-23T17:16:37.524Z,12.53
2018-06-23T17:19:06.797Z,12.49
2018-06-23T17:21:36.087Z,12.42
2018-06-23T17:24:05.412Z,12.43
2018-06-23T17:26:34.770Z,12.43
2018-06-23T17:29:03.836Z,12.43
2018-06-23T17:31:32.925Z,12.42
2018-06-23T17:34:01.935Z,12.50
2018-06-23T17:36:30.987Z,12.52
2018-06-23T17:39:00.160Z,12.48
2018-06-23T17:41:29.224Z,12.52
2018-06-23T17:43:58.261Z,12.57
2018-06-23T17:46:27.267Z,12.57
2018-06-23T17:48:56.448Z,12.59
2018-06-23T17:51:25.447Z,12.61
2018-06-23T17:53:55.160Z,12.55
2018-06-23T17:56:24.480Z,12.53
2018-06-23T17:58:53.605Z,12.54
2018-06-23T18:01:22.637Z,12.53
2018-06-23T18:03:51.673Z,12.40
2018-06-23T18:06:20.735Z,12.38
2018-06-23T18:08:49.707Z,12.33
2018-06-23T18:11:18.764Z,12.34
2018-06-23T18:13:47.798Z,12.28
2018-06-23T18:16:16.879Z,12.29
2018-06-23T18:18:45.903Z,12.24
2018-06-23T18:21:15.047Z,12.28
2018-06-23T18:23:44.065Z,12.28
2018-06-23T18:26:13.174Z,12.32
2018-06-23T18:28:42.193Z,12.34
2018-06-23T18:31:11.169Z,12.34
2018-06-23T18:33:40.151Z,12.34
2018-06-23T18:36:09.144Z,12.41
2018-06-23T18:38:38.123Z,12.38
2018-06-23T18:41:07.086Z,12.33
2018-06-23T18:43:36.144Z,12.33
2018-06-23T18:46:05.216Z,12.33
2018-06-23T18:48:34.263Z,12.37
2018-06-23T18:51:03.392Z,12.44
2018-06-23T18:53:32.382Z,12.36
2018-06-23T18:56:01.387Z,12.36
2018-06-23T18:58:30.402Z,12.41
2018-06-23T19:00:59.517Z,12.43
2018-06-23T19:03:28.664Z,12.50
2018-06-23T19:05:59.107Z,12.47
2018-06-23T19:08:28.081Z,12.46
2018-06-23T19:10:57.159Z,12.43
2018-06-23T19:13:26.138Z,12.50
2018-06-23T19:15:55.155Z,12.46
2018-06-23T19:18:24.150Z,12.50
2018-06-23T19:20:53.158Z,12.47
2018-06-23T19:23:22.504Z,12.50
2018-06-23T19:25:51.518Z,12.46
2018-06-23T19:28:20.510Z,12.39
2018-06-23T19:30:49.646Z,12.44
2018-06-23T19:33:18.743Z,12.49
2018-06-23T19:35:47.804Z,12.47
2018-06-23T19:38:17.079Z,12.44
2018-06-23T19:40:46.108Z,12.39
2018-06-23T19:43:15.227Z,12.36
2018-06-23T19:45:44.278Z,12.31
2018-06-23T19:48:13.262Z,12.29
2018-06-23T19:50:42.311Z,12.28
2018-06-23T19:53:11.339Z,12.27
2018-06-23T19:55:40.323Z,12.27
2018-06-23T19:58:09.369Z,12.24
2018-06-23T20:00:38.875Z,12.24
2018-06-23T20:03:08.360Z,12.21
2018-06-23T20:05:37.402Z,12.21
2018-06-23T20:08:06.418Z,12.23
2018-06-23T20:10:35.520Z,12.24
2018-06-23T20:13:04.838Z,12.27
2018-06-23T20:15:34.673Z,12.26
2018-06-23T20:18:03.756Z,12.27
2018-06-23T20:20:33.222Z,12.27
2018-06-23T20:23:02.350Z,12.27
2018-06-23T20:25:31.539Z,12.30
2018-06-23T20:28:00.617Z,12.33
2018-06-23T20:30:29.650Z,12.34
2018-06-23T20:32:58.710Z,12.34
2018-06-23T20:35:27.801Z,12.37
2018-06-23T20:37:56.874Z,12.37
2018-06-23T20:40:25.971Z,12.38
2018-06-23T20:42:54.977Z,12.40
2018-06-23T20:45:23.990Z,12.43
2018-06-23T20:47:53.003Z,12.41
2018-06-23T20:50:22.097Z,12.41
2018-06-23T20:52:51.151Z,12.44
2018-06-23T20:55:20.204Z,12.46
2018-06-23T20:57:49.243Z,12.44
2018-06-23T21:00:18.298Z,12.44
2018-06-23T21:02:47.672Z,12.42
2018-06-23T21:05:16.694Z,12.44
2018-06-23T21:07:45.777Z,12.41
2018-06-23T21:10:26.947Z,12.40
2018-06-23T21:12:56.089Z,12.37
2018-06-23T21:15:25.100Z,12.35
2018-06-23T21:17:54.115Z,12.35
2018-06-23T21:20:23.522Z,12.33
2018-06-23T21:22:52.512Z,12.27
2018-06-23T21:25:21.513Z,12.27
2018-06-23T21:27:50.556Z,12.28
2018-06-23T21:30:19.593Z,12.27
2018-06-23T21:32:48.663Z,12.22
2018-06-23T21:35:17.754Z,12.20
2018-06-23T21:37:46.784Z,12.16
2018-06-23T21:40:15.854Z,12.15
2018-06-23T21:42:44.981Z,12.12
2018-06-23T21:45:14.075Z,12.04
2018-06-23T21:47:43.248Z,11.97
2018-06-23T21:50:12.236Z,11.92
2018-06-23T21:52:41.257Z,11.92
2018-06-23T21:55:10.245Z,11.90
2018-06-23T21:57:39.440Z,11.86
2018-06-23T22:00:12.363Z,11.87
2018-06-23T22:02:41.362Z,11.86
2018-06-23T22:05:10.349Z,11.85
2018-06-23T22:07:39.317Z,11.81
2018-06-23T22:10:08.303Z,11.80
2018-06-23T22:12:37.300Z,11.77
2018-06-23T22:15:06.274Z,11.83
2018-06-23T22:17:35.334Z,11.80
2018-06-23T22:20:04.327Z,11.74
2018-06-23T22:22:33.316Z,11.73
2018-06-23T22:25:02.429Z,11.72
2018-06-23T22:27:31.549Z,11.73
2018-06-23T22:30:00.584Z,11.73
2018-06-23T22:32:29.574Z,11.69
2018-06-23T22:34:58.550Z,11.71
2018-06-23T22:37:27.790Z,11.74
2018-06-23T22:39:56.769Z,11.71
2018-06-23T22:42:25.731Z,11.71
2018-06-23T22:44:54.795Z,11.66
2018-06-23T22:47:23.829Z,11.58
2018-06-23T22:49:52.819Z,11.57
2018-06-23T22:52:21.801Z,11.59
2018-06-23T22:54:50.875Z,11.57
2018-06-23T22:57:19.863Z,11.52
2018-06-23T22:59:48.906Z,11.48
2018-06-23T23:02:17.920Z,11.48
2018-06-23T23:04:46.923Z,11.43
2018-06-23T23:07:15.913Z,11.41
2018-06-23T23:09:44.919Z,11.39
2018-06-23T23:12:14.013Z,11.40
2018-06-23T23:14:43.032Z,11.35
2018-06-23T23:17:12.109Z,11.44
2018-06-23T23:19:41.103Z,11.38
2018-06-23T23:22:10.089Z,11.39
2018-06-23T23:24:39.090Z,11.40
2018-06-23T23:27:08.098Z,11.38
2018-06-23T23:29:37.191Z,11.37
2018-06-23T23:32:06.283Z,11.38
2018-06-23T23:34:35.262Z,11.38
2018-06-23T23:37:04.276Z,11.38
2018-06-23T23:39:33.305Z,11.39
2018-06-23T23:42:03.419Z,11.38
2018-06-23T23:44:32.544Z,11.39
2018-06-23T23:47:01.646Z,11.40
2018-06-23T23:49:30.679Z,11.44
2018-06-23T23:51:59.757Z,11.40
2018-06-23T23:54:28.709Z,11.43
2018-06-23T23:56:57.683Z,11.41
2018-06-23T23:59:26.678Z,11.40
